Time;durP1;ratioP1;P1;durP2;ratioP2;P2;SDS_P1;SDS_P2;PMS_P1;PMS_P2;Temp;Humidity;BMP_temperature;BMP_pressure;BME280_temperature;BME280_humidity;BME280_pressure;Samples;Min_cycle;Max_cycle;Signal;HPM_P1;HPM_P2
2022/10/03 00:00:26;;;;;;;18.53;3.13;;;;;;;;;;5137720;27;20434;-76
2022/10/03 00:02:52;;;;;;;16.95;3.67;;;;;;;;;;5131008;27;20418;-76
2022/10/03 00:05:18;;;;;;;20.33;3.85;;;;;;;;;;5119153;27;20504;-76
2022/10/03 00:07:50;;;;;;;18.02;3.35;;;;;;;;;;5119458;27;20417;-76
2022/10/03 00:10:16;;;;;;;17.60;3.38;;;;;;;;;;5116327;27;20485;-76
2022/10/03 00:12:50;;;;;;;17.90;3.67;;;;;;;;;;5136959;27;20405;-77
2022/10/03 00:15:25;;;;;;;15.47;3.20;;;10.20;99.90;;;;;;5118358;27;20434;-76
2022/10/03 00:17:57;;;;;;;14.90;3.60;;;10.20;99.90;;;;;;5133144;27;20415;-76
2022/10/03 00:20:48;;;;;;;16.42;3.45;;;;;;;;;;5135509;27;20756;-76
2022/10/03 00:23:14;;;;;;;15.47;3.60;;;;;;;;;;5135902;27;20500;-76
2022/10/03 00:26:29;;;;;;;15.95;3.75;;;10.10;99.90;;;;;;5133547;27;20408;-76
2022/10/03 00:29:14;;;;;;;20.92;4.20;;;;;;;;;;5121023;27;20418;-76
2022/10/03 00:31:53;;;;;;;16.83;3.35;;;;;;;;;;5136958;27;20458;-76
2022/10/03 00:34:25;;;;;;;15.90;3.40;;;;;;;;;;5133157;27;20409;-75
2022/10/03 00:37:18;;;;;;;18.60;3.53;;;10.10;99.90;;;;;;5136818;27;20918;-75
2022/10/03 00:40:06;;;;;;;13.90;3.42;;;10.00;99.90;;;;;;5105451;27;20422;-76
2022/10/03 00:42:47;;;;;;;15.05;3.33;;;;;;;;;;5116242;27;20398;-76
2022/10/03 00:45:20;;;;;;;17.75;3.15;;;;;;;;;;5121366;27;20415;-76
2022/10/03 00:47:58;;;;;;;15.10;3.45;;;;;;;;;;5116412;27;20395;-76
2022/10/03 00:50:30;;;;;;;19.70;3.45;;;;;;;;;;5109679;27;20964;-76
2022/10/03 00:52:56;;;;;;;13.52;3.20;;;;;;;;;;5135142;27;20466;-76
2022/10/03 00:55:22;;;;;;;18.87;3.37;;;;;;;;;;5135042;27;20409;-76
2022/10/03 00:57:57;;;;;;;16.60;3.60;;;;;;;;;;5136398;27;20453;-76
2022/10/03 01:00:30;;;;;;;19.70;3.50;;;10.10;99.90;;;;;;5133532;27;20558;-76
2022/10/03 01:02:59;;;;;;;19.75;3.63;;;;;;;;;;5115912;27;20412;-76
2022/10/03 01:05:30;;;;;;;21.20;3.90;;;;;;;;;;5119213;27;20410;-76
2022/10/03 01:08:10;;;;;;;17.98;3.40;;;;;;;;;;5119284;27;20488;-76
2022/10/03 01:10:56;;;;;;;16.80;3.53;;;;;;;;;;5128957;27;20412;-76
2022/10/03 01:13:38;;;;;;;20.05;3.65;;;;;;;;;;5111825;27;20404;-76
2022/10/03 01:16:15;;;;;;;16.23;3.38;;;;;;;;;;5132732;27;20404;-76
2022/10/03 01:18:44;;;;;;;16.33;3.20;;;;;;;;;;5116666;27;20420;-77
2022/10/03 01:21:31;;;;;;;14.73;3.40;;;10.40;99.90;;;;;;5114595;27;20414;-76
2022/10/03 01:24:42;;;;;;;16.52;3.17;;;10.40;99.90;;;;;;5113666;27;20413;-77
2022/10/03 01:27:14;;;;;;;19.50;3.10;;;;;;;;;;5124485;27;20424;-77
2022/10/03 01:32:33;;;;;;;19.77;3.55;;;;;;;;;;5116586;27;20418;-76
2022/10/03 01:35:10;;;;;;;15.23;3.17;;;;;;;;;;5107444;27;20427;-76
2022/10/03 01:38:05;;;;;;;20.20;3.13;;;10.60;99.90;;;;;;5117942;27;20429;-76
2022/10/03 01:40:42;;;;;;;20.10;3.83;;;10.70;99.90;;;;;;5128066;27;20404;-76
2022/10/03 01:43:18;;;;;;;16.65;3.25;;;;;;;;;;5136010;27;20518;-76
2022/10/03 01:46:03;;;;;;;13.63;3.35;;;;;;;;;;5136122;27;20888;-76
2022/10/03 01:48:29;;;;;;;19.00;3.70;;;;;;;;;;5125602;27;20421;-76
2022/10/03 01:50:55;;;;;;;15.80;3.00;;;;;;;;;;5119172;27;20410;-77
2022/10/03 01:53:24;;;;;;;16.48;3.25;;;;;;;;;;5129743;27;20412;-76
2022/10/03 01:56:03;;;;;;;16.52;3.35;;;;;;;;;;5135640;27;20416;-76
2022/10/03 01:58:35;;;;;;;15.07;2.83;;;;;;;;;;5135199;27;20444;-77
2022/10/03 02:01:08;;;;;;;16.70;3.17;;;;;;;;;;5126672;27;20413;-76
2022/10/03 02:03:37;;;;;;;17.48;3.13;;;;;;;;;;5118816;27;20413;-76
2022/10/03 02:06:41;;;;;;;16.35;3.05;;;10.80;99.90;;;;;;5135177;27;20396;-76
2022/10/03 02:09:49;;;;;;;17.15;3.00;;;10.80;99.90;;;;;;5129189;27;20506;-76
2022/10/03 02:12:35;;;;;;;15.20;2.70;;;10.90;99.90;;;;;;5106981;27;20420;-76
2022/10/03 02:15:04;;;;;;;18.02;3.50;;;;;;;;;;5132194;27;20424;-76
2022/10/03 02:17:59;;;;;;;15.10;2.97;;;10.70;99.90;;;;;;5115353;27;20998;-76
2022/10/03 02:20:35;;;;;;;16.92;3.65;;;10.70;99.90;;;;;;5133055;27;20409;-76
2022/10/03 02:23:01;;;;;;;14.50;3.10;;;;;;;;;;5123900;27;20467;-77
2022/10/03 02:25:55;;;;;;;20.58;3.03;;;10.50;99.90;;;;;;5114585;28;20395;-77
2022/10/03 02:28:34;;;;;;;16.05;2.97;;;;;;;;;;5084536;27;20429;-77
2022/10/03 02:31:03;;;;;;;18.52;3.03;;;;;;;;;;5118481;27;20552;-77
2022/10/03 02:34:16;;;;;;;16.98;3.08;;;10.30;99.90;;;;;;5114358;28;20398;-76
2022/10/03 02:36:48;;;;;;;20.60;4.00;;;;;;;;;;5128914;27;20637;-76
2022/10/03 02:39:32;;;;;;;16.85;3.13;;;;;;;;;;5102380;27;20758;-77
2022/10/03 02:42:49;;;;;;;16.65;3.70;;;10.20;99.90;;;;;;5129068;27;20753;-76
2022/10/03 02:45:21;;;;;;;16.88;3.28;;;;;;;;;;5125942;27;20420;-77
2022/10/03 02:48:23;;;;;;;16.45;3.28;;;10.20;99.90;;;;;;5115527;27;20412;-76
2022/10/03 02:50:49;;;;;;;14.57;2.92;;;;;;;;;;5130244;28;20418;-76
2022/10/03 02:53:28;;;;;;;19.17;3.15;;;;;;;;;;5120397;27;20448;-77
2022/10/03 02:55:57;;;;;;;16.63;3.40;;;;;;;;;;5096939;28;20825;-76
2022/10/03 02:58:41;;;;;;;18.52;3.30;;;;;;;;;;5117873;27;20425;-76
2022/10/03 03:01:30;;;;;;;20.83;3.75;;;;;;;;;;5098193;28;20445;-77
2022/10/03 03:03:57;;;;;;;23.70;3.70;;;;;;;;;;5134519;27;20914;-76
2022/10/03 03:06:30;;;;;;;22.13;3.80;;;;;;;;;;5100393;28;20547;-75
2022/10/03 03:09:02;;;;;;;19.95;3.70;;;;;;;;;;5124520;27;20496;-76
2022/10/03 03:12:09;;;;;;;17.33;3.88;;;10.10;99.90;;;;;;5131256;27;20803;-76
2022/10/03 03:14:41;;;;;;;18.80;3.95;;;;;;;;;;5106448;27;20420;-77
2022/10/03 03:17:26;;;;;;;18.25;4.15;;;;;;;;;;5134427;27;20412;-76
2022/10/03 03:19:59;;;;;;;15.60;4.05;;;;;;;;;;5124645;28;20423;-76
2022/10/03 03:22:26;;;;;;;15.57;3.85;;;;;;;;;;5113586;28;20398;-77
2022/10/03 03:25:11;;;;;;;16.67;3.70;;;9.50;99.90;;;;;;5123127;27;20408;-77
2022/10/03 03:28:06;;;;;;;21.75;4.30;;;;;;;;;;5131559;27;20448;-77
2022/10/03 03:31:12;;;;;;;18.48;4.15;;;9.60;99.90;;;;;;5114839;27;20408;-76
2022/10/03 03:33:53;;;;;;;19.85;4.07;;;;;;;;;;5137643;27;20397;-76
2022/10/03 03:36:19;;;;;;;19.10;4.07;;;;;;;;;;5136411;27;20908;-76
2022/10/03 03:38:55;;;;;;;14.07;3.93;;;;;;;;;;5137242;27;20784;-76
2022/10/03 03:41:44;;;;;;;17.48;4.13;;;;;;;;;;5132979;27;20484;-77
2022/10/03 03:44:13;;;;;;;19.65;3.80;;;;;;;;;;5105806;27;20887;-77
2022/10/03 03:46:49;;;;;;;19.70;4.20;;;;;;;;;;5117420;27;20816;-77
2022/10/03 03:49:34;;;;;;;13.55;4.15;;;;;;;;;;5116370;27;20409;-77
2022/10/03 03:52:00;;;;;;;21.60;4.35;;;;;;;;;;5121981;27;20417;-77
2022/10/03 03:55:07;;;;;;;17.23;3.95;;;9.60;99.90;;;;;;5117076;27;20413;-77
2022/10/03 03:57:51;;;;;;;16.90;4.10;;;;;;;;;;5134263;27;20416;-77
2022/10/03 04:00:17;;;;;;;19.65;4.13;;;;;;;;;;5100137;27;20752;-77
2022/10/03 04:02:46;;;;;;;17.63;4.25;;;;;;;;;;5135274;27;20413;-77
2022/10/03 04:05:12;;;;;;;16.77;4.22;;;;;;;;;;5137399;27;20401;-78
2022/10/03 04:07:49;;;;;;;16.13;4.15;;;;;;;;;;5134859;27;20424;-78
2022/10/03 04:10:28;;;;;;;17.90;4.28;;;;;;;;;;5136088;27;20499;-78
2022/10/03 04:13:06;;;;;;;15.60;3.85;;;;;;;;;;5136943;27;20416;-77
2022/10/03 04:15:35;;;;;;;17.77;4.18;;;;;;;;;;5133402;27;20932;-76
2022/10/03 04:21:39;;;;;;;17.10;4.07;;;9.60;99.90;;;;;;5137468;27;20454;-77
2022/10/03 04:24:08;;;;;;;13.75;3.97;;;;;;;;;;5134804;27;20768;-77
2022/10/03 04:26:52;;;;;;;21.48;4.07;;;;;;;;;;5101349;27;20422;-76
2022/10/03 04:29:24;;;;;;;18.05;3.83;;;;;;;;;;5133319;27;20415;-76
2022/10/03 04:32:06;;;;;;;18.30;3.83;;;;;;;;;;5106728;27;20422;-76
2022/10/03 04:34:41;;;;;;;19.77;3.85;;;;;;;;;;5129168;27;20432;-76
2022/10/03 04:37:37;;;;;;;15.93;3.75;;;9.30;99.90;;;;;;5135822;27;20412;-78
2022/10/03 04:40:10;;;;;;;21.58;4.50;;;;;;;;;;5128515;27;20416;-78
2022/10/03 04:42:57;;;;;;;15.43;4.07;;;9.30;99.90;;;;;;5134644;27;20467;-78
2022/10/03 04:45:58;;;;;;;16.15;4.18;;;9.50;99.90;;;;;;5115451;27;20925;-78
2022/10/03 04:48:50;;;;;;;18.00;3.85;;;9.40;99.90;;;;;;5134192;27;20409;-78
2022/10/03 04:51:23;;;;;;;14.50;3.92;;;;;;;;;;5133009;27;20447;-78
2022/10/03 04:53:52;;;;;;;18.33;4.30;;;;;;;;;;5125252;27;20863;-78
2022/10/03 04:56:40;;;;;;;13.27;4.07;;;;;;;;;;5098500;27;20501;-78
2022/10/03 04:59:25;;;;;;;12.70;3.85;;;;;;;;;;5122969;27;20876;-78
2022/10/03 05:01:51;;;;;;;14.30;3.70;;;;;;;;;;5134144;27;20424;-78
2022/10/03 05:04:24;;;;;;;17.83;4.20;;;;;;;;;;5118925;27;20400;-78
2022/10/03 05:06:59;;;;;;;18.33;3.92;;;;;;;;;;5135540;27;20397;-78
2022/10/03 05:09:40;;;;;;;19.92;4.10;;;;;;;;;;5125806;27;20428;-77
2022/10/03 05:12:11;;;;;;;17.20;3.90;;;;;;;;;;5119076;27;20401;-78
2022/10/03 05:14:40;;;;;;;17.23;3.92;;;;;;;;;;5111245;27;20420;-78
2022/10/03 05:17:19;;;;;;;16.13;4.15;;;;;;;;;;5108538;27;20510;-77
2022/10/03 05:19:49;;;;;;;17.50;4.30;;;;;;;;;;5116589;27;20428;-77
2022/10/03 05:22:27;;;;;;;14.70;4.38;;;;;;;;;;5131425;27;20413;-78
2022/10/03 05:24:58;;;;;;;17.15;4.22;;;;;;;;;;5119274;27;20389;-79
2022/10/03 05:27:28;;;;;;;16.92;4.40;;;;;;;;;;5134818;27;20415;-78
2022/10/03 05:29:57;;;;;;;15.80;4.40;;;;;;;;;;5133057;27;20520;-78
2022/10/03 05:32:31;;;;;;;15.43;4.13;;;;;;;;;;5130130;27;20774;-79
2022/10/03 05:35:07;;;;;;;15.88;4.32;;;;;;;;;;5134906;27;20496;-78
2022/10/03 05:38:12;;;;;;;16.52;4.05;;;;;;;;;;5133400;27;20419;-77
2022/10/03 05:40:39;;;;;;;24.88;4.57;;;;;;;;;;5056346;28;20454;-79
2022/10/03 05:43:27;;;;;;;17.67;4.68;;;;;;;;;;5051968;28;20940;-79
2022/10/03 05:46:01;;;;;;;19.05;4.75;;;;;;;;;;5096771;27;20425;-79
2022/10/03 05:48:44;;;;;;;14.15;3.97;;;;;;;;;;5117838;27;20752;-78
2022/10/03 05:51:32;;;;;;;12.67;3.63;;;;;;;;;;5134919;27;20419;-75
2022/10/03 05:53:58;;;;;;;15.30;3.85;;;;;;;;;;5135429;27;20397;-78
2022/10/03 05:56:24;;;;;;;17.85;3.85;;;;;;;;;;5133243;27;20808;-79
2022/10/03 05:58:57;;;;;;;16.33;3.72;;;;;;;;;;5132644;27;20794;-79
2022/10/03 06:01:29;;;;;;;13.10;3.70;;;;;;;;;;5112488;27;20448;-78
2022/10/03 06:03:55;;;;;;;16.15;4.10;;;;;;;;;;5117623;27;20412;-78
2022/10/03 06:06:33;;;;;;;17.25;4.05;;;;;;;;;;5117981;27;20392;-78
2022/10/03 06:09:34;;;;;;;12.05;3.83;;;9.50;99.90;;;;;;5133457;27;20413;-78
2022/10/03 06:12:01;;;;;;;14.10;4.30;;;;;;;;;;5072446;28;20492;-78
2022/10/03 06:14:32;;;;;;;15.00;3.90;;;;;;;;;;5110897;27;20425;-78
2022/10/03 06:17:10;;;;;;;15.38;4.22;;;;;;;;;;5117029;27;20436;-79
2022/10/03 06:20:23;;;;;;;18.30;4.88;;;9.30;99.90;;;;;;5119475;27;21347;-78
2022/10/03 06:22:58;;;;;;;13.88;4.28;;;;;;;;;;5118135;27;20475;-79
2022/10/03 06:25:27;;;;;;;11.77;4.13;;;;;;;;;;5134635;27;20397;-79
2022/10/03 06:28:12;;;;;;;15.07;3.90;;;;;;;;;;5116142;27;20967;-80
2022/10/03 06:30:38;;;;;;;13.55;3.55;;;;;;;;;;5127297;27;20932;-80
2022/10/03 06:33:23;;;;;;;11.98;3.50;;;9.60;99.90;;;;;;5114117;28;20390;-81
2022/10/03 06:36:04;;;;;;;14.43;3.83;;;;;;;;;;5097652;28;20394;-80
2022/10/03 06:38:49;;;;;;;17.15;3.53;;;;;;;;;;5098951;27;20503;-80
2022/10/03 06:41:53;;;;;;;14.85;3.63;;;;;;;;;;5097294;28;20456;-80
2022/10/03 06:44:31;;;;;;;15.07;3.05;;;10.30;99.90;;;;;;5120356;27;20454;-81
2022/10/03 06:47:06;;;;;;;14.73;3.67;;;;;;;;;;5099886;27;20432;-80
2022/10/03 06:49:56;;;;;;;13.03;3.23;;;;;;;;;;5133929;27;20409;-80
2022/10/03 06:52:28;;;;;;;12.18;3.22;;;;;;;;;;5125988;27;20427;-80
2022/10/03 06:55:13;;;;;;;13.48;3.10;;;;;;;;;;5116387;27;20918;-80
2022/10/03 06:57:48;;;;;;;11.82;3.00;;;;;;;;;;5118208;27;20417;-81
2022/10/03 07:00:42;;;;;;;9.55;3.00;;;10.90;99.90;;;;;;5106804;28;20552;-79
2022/10/03 07:03:23;;;;;;;12.15;2.83;;;;;;;;;;5119025;27;21029;-79
2022/10/03 07:06:12;;;;;;;14.43;3.35;;;11.20;99.90;;;;;;5130704;27;20405;-79
2022/10/03 07:08:39;;;;;;;10.07;2.50;;;;;;;;;;5123869;27;20423;-79
2022/10/03 07:11:10;;;;;;;9.45;2.50;;;;;;;;;;5131905;27;20409;-80
2022/10/03 07:13:42;;;;;;;15.32;3.42;;;;;;;;;;5117869;27;20978;-79
2022/10/03 07:16:27;;;;;;;15.00;3.38;;;;;;;;;;5135849;27;20504;-79
2022/10/03 07:19:25;;;;;;;9.68;3.10;;;11.60;99.90;;;;;;5117580;27;20417;-80
2022/10/03 07:22:15;;;;;;;12.15;3.00;;;;;;;;;;5138217;27;20718;-80
2022/10/03 07:24:54;;;;;;;13.02;2.80;;;;;;;;;;5118679;27;20405;-79
2022/10/03 07:27:23;;;;;;;11.20;3.67;;;;;;;;;;5137000;27;20396;-79
2022/10/03 07:30:01;;;;;;;11.27;3.00;;;;;;;;;;5111031;27;20913;-79
2022/10/03 07:32:27;;;;;;;11.32;2.67;;;;;;;;;;5134563;27;20577;-79
2022/10/03 07:35:21;;;;;;;8.63;2.42;;;;;;;;;;5104821;27;20422;-79
2022/10/03 07:41:02;;;;;;;8.70;2.10;;;12.70;99.90;;;;;;5128301;27;20410;-80
2022/10/03 07:43:31;;;;;;;11.15;1.90;;;;;;;;;;5104292;27;20488;-80
2022/10/03 07:46:03;;;;;;;8.60;2.22;;;;;;;;;;5137550;27;20408;-80
2022/10/03 07:48:29;;;;;;;11.38;2.00;;;;;;;;;;5134381;27;20405;-79
2022/10/03 07:50:58;;;;;;;12.13;2.00;;;;;;;;;;5137644;27;20450;-80
2022/10/03 07:53:33;;;;;;;10.32;2.10;;;;;;;;;;5115100;27;20450;-80
2022/10/03 07:56:21;;;;;;;9.18;2.08;;;13.50;99.90;;;;;;5126110;27;20424;-80
2022/10/03 07:59:00;;;;;;;7.80;1.80;;;;;;;;;;5119375;27;20456;-79
2022/10/03 08:01:35;;;;;;;8.87;1.90;;;;;;;;;;5118641;27;20409;-80
2022/10/03 08:04:11;;;;;;;7.88;1.70;;;;;;;;;;5135487;27;21018;-79
2022/10/03 08:07:13;;;;;;;10.65;2.25;;;13.90;99.90;;;;;;5137231;27;20397;-80
2022/10/03 08:09:39;;;;;;;9.55;1.70;;;;;;;;;;5131216;27;20892;-80
2022/10/03 08:12:25;;;;;;;10.82;2.10;;;14.10;99.90;;;;;;5121905;27;20415;-80
2022/10/03 08:14:56;;;;;;;7.30;1.70;;;;;;;;;;5150755;27;20421;-81
2022/10/03 08:17:41;;;;;;;8.75;2.10;;;;;;;;;;5128976;27;20395;-80
2022/10/03 08:20:07;;;;;;;7.22;1.90;;;;;;;;;;5108058;27;20433;-80
2022/10/03 08:22:49;;;;;;;9.27;1.83;;;;;;;;;;5110604;27;21182;-80
2022/10/03 08:25:18;;;;;;;9.05;1.98;;;;;;;;;;5122671;27;21174;-80
2022/10/03 08:27:44;;;;;;;7.80;1.88;;;;;;;;;;5117863;27;20416;-80
2022/10/03 08:30:24;;;;;;;7.47;1.88;;;;;;;;;;5130257;27;20498;-80
2022/10/03 08:32:59;;;;;;;8.82;1.80;;;;;;;;;;5122977;27;20406;-80
2022/10/03 08:35:34;;;;;;;10.00;1.90;;;;;;;;;;5114400;27;20417;-80
2022/10/03 08:38:22;;;;;;;11.68;2.15;;;15.20;99.90;;;;;;5109768;27;20474;-80
2022/10/03 08:40:55;;;;;;;10.93;2.20;;;;;;;;;;5098272;27;20528;-80
2022/10/03 08:43:33;;;;;;;9.68;1.92;;;;;;;;;;5125413;27;20760;-79
2022/10/03 08:46:13;;;;;;;10.27;2.00;;;;;;;;;;5133172;27;20437;-78
2022/10/03 08:49:02;;;;;;;10.00;1.88;;;15.70;99.90;;;;;;5126038;27;20418;-78
2022/10/03 08:51:58;;;;;;;8.82;1.73;;;15.70;99.90;;;;;;5119514;27;20444;-83
2022/10/03 08:54:31;;;;;;;9.98;2.20;;;;;;;;;;5129684;27;20433;-83
2022/10/03 08:57:31;;;;;;;10.40;1.90;;;15.70;99.90;;;;;;5126073;27;20440;-82
2022/10/03 08:59:58;;;;;;;7.07;1.98;;;;;;;;;;5135419;27;20427;-82
2022/10/03 09:02:34;;;;;;;9.25;1.90;;;;;;;;;;5150002;27;20809;-83
2022/10/03 09:05:19;;;;;;;7.22;1.70;;;;;;;;;;5136516;27;20401;-80
2022/10/03 09:08:06;;;;;;;8.07;2.03;;;;;;;;;;5126399;27;20413;-78
2022/10/03 09:10:50;;;;;;;10.75;1.85;;;;;;;;;;5129693;27;20413;-80
2022/10/03 09:13:21;;;;;;;9.48;1.92;;;;;;;;;;5129260;27;20498;-80
2022/10/03 09:15:59;;;;;;;9.65;1.85;;;;;;;;;;5135065;27;20461;-80
2022/10/03 09:18:34;;;;;;;7.85;1.80;;;;;;;;;;5108556;27;20449;-80
2022/10/03 09:21:25;;;;;;;12.90;2.42;;;16.40;99.90;;;;;;5123298;27;20835;-79
2022/10/03 09:24:12;;;;;;;12.80;1.70;;;;;;;;;;5124074;27;20449;-79
2022/10/03 09:26:38;;;;;;;8.95;2.08;;;;;;;;;;5122495;27;20424;-80
2022/10/03 09:29:07;;;;;;;11.77;1.80;;;;;;;;;;5125207;27;20426;-80
2022/10/03 09:31:52;;;;;;;10.77;1.70;;;;;;;;;;5129839;27;20469;-80
2022/10/03 09:34:42;;;;;;;7.90;1.63;;;16.70;99.90;;;;;;5129014;27;20914;-80
2022/10/03 09:37:08;;;;;;;10.10;1.70;;;;;;;;;;5128249;27;20422;-80
2022/10/03 09:39:43;;;;;;;7.00;1.50;;;17.00;99.90;;;;;;5109860;27;20428;-80
2022/10/03 09:42:21;;;;;;;6.78;1.48;;;;;;;;;;5122558;27;20780;-80
2022/10/03 09:45:20;;;;;;;7.68;2.08;;;;;;;;;;5108786;27;20417;-80
2022/10/03 09:47:47;;;;;;;7.23;1.70;;;16.80;99.90;;;;;;5085706;27;20846;-80
2022/10/03 09:50:28;;;;;;;8.45;1.60;;;;;;;;;;5109646;27;20432;-80
2022/10/03 09:53:17;;;;;;;5.07;1.55;;;16.80;99.90;;;;;;5134302;27;20480;-79
2022/10/03 09:56:00;;;;;;;6.22;1.60;;;;;;;;;;5106462;27;20425;-79
2022/10/03 09:58:29;;;;;;;10.48;1.83;;;;;;;;;;5135119;27;20412;-80
2022/10/03 10:01:08;;;;;;;7.38;1.48;;;;;;;;;;5111928;27;20496;-80
2022/10/03 10:03:53;;;;;;;8.65;1.63;;;;;;;;;;5100795;27;20418;-80
2022/10/03 10:06:25;;;;;;;16.73;2.35;;;;;;;;;;5133756;27;20421;-80
2022/10/03 10:09:21;;;;;;;8.47;1.90;;;17.20;99.90;;;;;;5117589;27;20504;-79
2022/10/03 10:12:26;;;;;;;5.22;1.40;;;17.10;99.90;;;;;;5129636;27;20425;-79
2022/10/03 10:15:01;;;;;;;6.17;1.40;;;;;;;;;;5129690;27;20421;-80
2022/10/03 10:17:49;;;;;;;7.93;2.28;;;17.40;99.90;;;;;;5132913;27;20420;-79
2022/10/03 10:20:43;;;;;;;6.47;1.50;;;17.30;99.90;;;;;;5123375;27;20749;-79
2022/10/03 10:23:20;;;;;;;6.83;1.63;;;17.40;99.90;;;;;;5128646;27;20822;-79
2022/10/03 10:26:08;;;;;;;5.70;1.50;;;17.30;99.90;;;;;;5122699;27;20404;-79
2022/10/03 10:28:34;;;;;;;4.95;1.38;;;;;;;;;;5126232;27;20477;-80
2022/10/03 10:31:15;;;;;;;6.30;1.50;;;;;;;;;;5132816;27;20412;-79
2022/10/03 10:34:33;;;;;;;4.07;1.23;;;17.40;99.90;;;;;;5126537;27;20427;-80
2022/10/03 10:37:53;;;;;;;5.10;1.33;;;17.40;99.90;;;;;;5127578;27;20412;-79
2022/10/03 10:40:39;;;;;;;5.70;1.40;;;17.20;99.90;;;;;;5047281;28;20437;-79
2022/10/03 10:43:32;;;;;;;6.97;1.50;;;17.30;99.90;;;;;;5121352;27;20959;-79
2022/10/03 10:46:17;;;;;;;4.45;1.35;;;;;;;;;;5125704;27;20478;-80
2022/10/03 10:49:37;;;;;;;7.40;1.63;;;17.70;99.90;;;;;;5110279;27;20861;-80
2022/10/03 10:52:06;;;;;;;6.82;1.45;;;;;;;;;;5084545;27;20444;-80
2022/10/03 10:54:38;;;;;;;5.72;1.38;;;;;;;;;;5128814;27;20413;-80
2022/10/03 10:57:24;;;;;;;6.67;1.80;;;;;;;;;;5126021;27;20599;-80
2022/10/03 11:00:31;;;;;;;6.22;1.48;;;18.10;99.90;;;;;;5125745;27;20507;-79
2022/10/03 11:02:57;;;;;;;6.43;1.50;;;;;;;;;;5084485;27;20427;-79
2022/10/03 11:05:42;;;;;;;5.43;1.77;;;;;;;;;;5098217;28;20418;-75
2022/10/03 11:08:26;;;;;;;5.88;1.33;;;;;;;;;;5113618;27;20472;-75
2022/10/03 11:11:11;;;;;;;7.30;1.90;;;;;;;;;;5134601;27;20782;-75
2022/10/03 11:14:16;;;;;;;6.47;1.50;;;17.90;99.90;;;;;;5129265;27;20407;-75
2022/10/03 11:16:49;;;;;;;5.32;1.30;;;;;;;;;;5134601;27;20404;-75
2022/10/03 11:19:52;;;;;;;8.38;1.38;;;17.80;99.90;;;;;;5134215;27;20473;-75
2022/10/03 11:22:18;;;;;;;5.78;1.50;;;;;;;;;;5134282;27;20427;-75
2022/10/03 11:25:39;;;;;;;7.60;1.50;;;18.40;99.90;;;;;;5132907;27;20409;-75
2022/10/03 11:28:42;;;;;;;6.72;2.10;;;18.40;99.90;;;;;;5116361;27;20425;-75
2022/10/03 11:31:27;;;;;;;9.00;1.40;;;;;;;;;;5117114;27;20494;-75
2022/10/03 11:34:15;;;;;;;4.68;1.40;;;;;;;;;;5124296;28;20502;-75
2022/10/03 11:36:47;;;;;;;6.13;1.60;;;18.30;99.90;;;;;;5113831;28;20430;-75
2022/10/03 11:39:35;;;;;;;5.95;1.40;;;18.20;99.90;;;;;;5096510;28;20476;-73
2022/10/03 11:42:19;;;;;;;7.78;1.80;;;18.40;99.90;;;;;;5114005;27;20454;-74
2022/10/03 11:44:59;;;;;;;8.52;1.73;;;;;;;;;;5129785;27;20417;-74
2022/10/03 11:47:27;;;;;;;6.57;1.73;;;18.40;99.90;;;;;;5133897;27;20389;-74
2022/10/03 11:50:15;;;;;;;5.63;1.50;;;18.30;99.90;;;;;;5137302;27;20449;-74
2022/10/03 11:52:58;;;;;;;4.43;1.35;;;18.30;99.90;;;;;;5121539;27;20393;-75
2022/10/03 11:55:45;;;;;;;4.63;1.30;;;18.60;99.90;;;;;;5117239;27;20394;-74
2022/10/03 11:58:11;;;;;;;7.82;1.65;;;;;;;;;;5117342;27;20921;-74
2022/10/03 12:00:41;;;;;;;5.43;1.42;;;18.70;99.90;;;;;;5117182;27;20391;-74
2022/10/03 12:03:12;;;;;;;5.75;1.75;;;;;;;;;;5118791;27;20390;-74
2022/10/03 12:05:46;;;;;;;7.57;1.83;;;18.60;99.90;;;;;;5120871;27;20714;-74
2022/10/03 12:11:17;;;;;;;8.80;1.98;;;18.90;99.90;;;;;;5137071;27;20409;-75
2022/10/03 12:14:02;;;;;;;6.33;1.40;;;18.60;99.90;;;;;;5119343;27;20931;-74
2022/10/03 12:16:36;;;;;;;6.10;1.48;;;18.70;99.90;;;;;;5138244;27;20893;-74
2022/10/03 12:19:23;;;;;;;6.18;1.60;;;18.70;99.90;;;;;;5134069;27;20426;-74
2022/10/03 12:21:49;;;;;;;5.17;1.40;;;;;;;;;;5134249;27;20399;-75
2022/10/03 12:24:26;;;;;;;6.18;1.50;;;19.00;99.90;;;;;;5133254;27;20422;-74
2022/10/03 12:26:52;;;;;;;4.65;1.38;;;;;;;;;;5132423;27;20978;-74
2022/10/03 12:29:20;;;;;;;5.22;1.30;;;19.00;99.90;;;;;;5117627;27;20399;-75
2022/10/03 12:32:00;;;;;;;4.90;1.27;;;19.10;99.90;;;;;;5134085;27;20394;-74
2022/10/03 12:34:29;;;;;;;6.28;1.55;;;;;;;;;;5102465;28;20764;-74
2022/10/03 12:37:33;;;;;;;7.18;1.55;;;18.90;99.90;;;;;;5096916;28;20408;-74
2022/10/03 12:40:37;;;;;;;5.18;1.70;;;19.10;99.90;;;;;;5119129;27;20501;-75
2022/10/03 12:43:19;;;;;;;6.65;1.70;;;;;;;;;;5086094;28;20415;-75
2022/10/03 12:46:14;;;;;;;6.35;1.70;;;19.00;99.90;;;;;;5097959;28;20429;-75
2022/10/03 12:48:42;;;;;;;5.80;1.70;;;;;;;;;;5128630;27;20411;-74
2022/10/03 12:51:28;;;;;;;8.27;1.80;;;;;;;;;;5096480;28;20400;-74
2022/10/03 12:54:25;;;;;;;7.45;1.50;;;19.10;99.90;;;;;;5123454;27;20565;-74
2022/10/03 12:57:12;;;;;;;5.40;1.80;;;19.00;99.90;;;;;;5137068;27;20986;-74
2022/10/03 12:59:49;;;;;;;8.07;1.70;;;19.00;99.90;;;;;;5116912;27;20430;-74
2022/10/03 13:02:50;;;;;;;5.30;1.20;;;;;;;;;;5126055;27;20984;-74
2022/10/03 13:05:17;;;;;;;6.95;1.42;;;;;;;;;;5050424;28;20457;-73
2022/10/03 13:07:56;;;;;;;5.90;1.75;;;18.80;99.90;;;;;;5107992;27;20874;-73
2022/10/03 13:10:32;;;;;;;5.43;1.70;;;19.00;99.90;;;;;;5132405;27;20945;-74
2022/10/03 13:13:26;;;;;;;4.78;1.42;;;18.70;99.90;;;;;;5129479;27;20893;-73
2022/10/03 13:16:12;;;;;;;5.95;1.55;;;18.80;99.90;;;;;;5128299;27;20426;-72
2022/10/03 13:19:12;;;;;;;6.53;1.43;;;18.80;99.90;;;;;;5132612;27;20418;-73
2022/10/03 13:22:10;;;;;;;5.72;1.50;;;18.70;99.90;;;;;;5128052;27;20407;-73
2022/10/03 13:24:51;;;;;;;6.68;1.50;;;19.10;99.90;;;;;;5128715;27;20440;-73
2022/10/03 13:27:41;;;;;;;5.73;1.27;;;;;;;;;;5128068;27;20450;-74
2022/10/03 13:30:19;;;;;;;5.40;1.27;;;18.70;99.90;;;;;;5116433;27;20416;-74
2022/10/03 13:33:00;;;;;;;6.53;1.50;;;18.70;99.90;;;;;;5112791;27;20410;-74
2022/10/03 13:35:57;;;;;;;5.38;1.30;;;18.70;99.90;;;;;;5114353;27;20865;-74
2022/10/03 13:38:46;;;;;;;6.90;1.50;;;18.60;99.90;;;;;;5127035;27;20779;-74
2022/10/03 13:41:42;;;;;;;6.78;1.75;;;18.50;99.90;;;;;;5119798;27;20414;-73
2022/10/03 13:44:16;;;;;;;7.57;1.42;;;18.70;99.90;;;;;;5112516;27;20455;-74
2022/10/03 13:46:55;;;;;;;6.53;1.58;;;;;;;;;;5131605;27;20406;-74
2022/10/03 13:49:31;;;;;;;5.18;1.20;;;18.70;99.90;;;;;;5094701;28;20442;-74
2022/10/03 13:52:21;;;;;;;5.67;1.23;;;18.70;99.90;;;;;;5099916;27;20447;-74
2022/10/03 13:55:05;;;;;;;4.77;1.37;;;18.60;99.90;;;;;;5127836;27;20986;-74
2022/10/03 13:57:43;;;;;;;6.50;1.45;;;18.60;99.90;;;;;;5127219;27;20430;-74
2022/10/03 14:00:18;;;;;;;6.97;1.92;;;;;;;;;;5128686;27;20782;-74
2022/10/03 14:03:00;;;;;;;5.57;1.50;;;18.90;99.90;;;;;;5103103;27;20471;-74
2022/10/03 14:05:55;;;;;;;6.68;1.30;;;18.80;99.90;;;;;;5112988;27;20421;-75
2022/10/03 14:08:40;;;;;;;6.40;1.30;;;;;;;;;;5102114;27;20418;-75
2022/10/03 14:11:09;;;;;;;5.28;1.50;;;;;;;;;;5124890;27;20406;-75
2022/10/03 14:13:47;;;;;;;5.72;1.38;;;;;;;;;;5108364;27;20438;-75
2022/10/03 14:16:50;;;;;;;7.70;1.50;;;18.70;99.90;;;;;;5129162;27;21005;-75
2022/10/03 14:19:29;;;;;;;5.47;1.55;;;18.70;99.90;;;;;;5108208;27;20483;-75
2022/10/03 14:22:13;;;;;;;4.93;1.35;;;18.90;99.90;;;;;;5120044;27;20415;-75
2022/10/03 14:24:55;;;;;;;4.90;1.42;;;;;;;;;;5118581;27;20457;-75
2022/10/03 14:27:39;;;;;;;5.57;1.20;;;18.70;99.90;;;;;;5124882;27;20511;-75
2022/10/03 14:30:12;;;;;;;4.33;1.27;;;;;;;;;;5104756;27;20543;-74
2022/10/03 14:32:57;;;;;;;5.32;1.20;;;;;;;;;;5096620;28;20773;-75
2022/10/03 14:35:23;;;;;;;4.80;1.52;;;;;;;;;;5120776;27;21026;-75
2022/10/03 14:37:57;;;;;;;4.80;1.20;;;18.70;99.90;;;;;;5108893;28;20505;-75
2022/10/03 14:40:41;;;;;;;5.82;1.35;;;18.80;99.90;;;;;;5118911;27;20439;-75
2022/10/03 14:43:12;;;;;;;4.05;1.25;;;18.50;99.90;;;;;;5117108;27;20414;-75
2022/10/03 14:45:51;;;;;;;5.80;1.58;;;18.60;99.90;;;;;;5120632;27;20982;-75
2022/10/03 14:48:49;;;;;;;4.85;1.48;;;18.40;99.90;;;;;;5127913;27;20505;-75
2022/10/03 14:51:23;;;;;;;6.63;1.60;;;18.50;99.90;;;;;;5096567;28;20763;-75
2022/10/03 14:54:01;;;;;;;6.68;1.70;;;18.50;99.90;;;;;;5119611;28;20497;-75
2022/10/03 14:56:31;;;;;;;5.55;1.33;;;18.40;99.90;;;;;;5126784;28;20413;-75
2022/10/03 14:59:02;;;;;;;5.63;1.65;;;18.40;99.90;;;;;;5107451;28;20751;-75
2022/10/03 15:01:28;;;;;;;6.28;1.40;;;18.10;99.90;;;;;;5120129;28;20785;-74
2022/10/03 15:04:00;;;;;;;5.63;1.30;;;;;;;;;;5102033;28;20907;-74
2022/10/03 15:06:47;;;;;;;5.65;1.80;;;18.10;99.90;;;;;;5124205;28;20416;-73
2022/10/03 15:09:16;;;;;;;4.50;1.35;;;;;;;;;;5127049;28;20422;-74
2022/10/03 15:11:51;;;;;;;4.83;1.23;;;;;;;;;;5129014;28;20547;-74
2022/10/03 15:14:18;;;;;;;6.13;1.58;;;18.20;99.90;;;;;;5129674;28;20402;-74
2022/10/03 15:16:55;;;;;;;6.18;1.35;;;18.20;99.90;;;;;;5107402;28;20424;-74